sensor_id;sensor_type;location;lat;lon;timestamp;P1;P2;P0
64229;PMS5003;50547;49.498;0.092;2023-05-25T00:02:13;14;14;
64229;PMS5003;50547;49.498;0.092;2023-05-25T00:04:39;14;14;
64229;PMS5003;50547;49.498;0.092;2023-05-25T00:07:08;14;14;
64229;PMS5003;50547;49.498;0.092;2023-05-25T00:09:37;14;14;
64229;PMS5003;50547;49.498;0.092;2023-05-25T00:12:03;14;14;
64229;PMS5003;50547;49.498;0.092;2023-05-25T00:14:32;14;14;
64229;PMS5003;50547;49.498;0.092;2023-05-25T00:17:01;14;14;
64229;PMS5003;50547;49.498;0.092;2023-05-25T00:19:31;14;14;
64229;PMS5003;50547;49.498;0.092;2023-05-25T00:22:00;15;14;
64229;PMS5003;50547;49.498;0.092;2023-05-25T00:24:29;17;15;
64229;PMS5003;50547;49.498;0.092;2023-05-25T00:26:58;18;16;
64229;PMS5003;50547;49.498;0.092;2023-05-25T00:29:28;15;14;
64229;PMS5003;50547;49.498;0.092;2023-05-25T00:31:57;18;16;
64229;PMS5003;50547;49.498;0.092;2023-05-25T00:34:23;18;16;
64229;PMS5003;50547;49.498;0.092;2023-05-25T00:36:52;18;16;
64229;PMS5003;50547;49.498;0.092;2023-05-25T00:39:21;18;16;
64229;PMS5003;50547;49.498;0.092;2023-05-25T00:41:50;19;17;
64229;PMS5003;50547;49.498;0.092;2023-05-25T00:44:20;20;17;
64229;PMS5003;50547;49.498;0.092;2023-05-25T00:46:50;20;17;
64229;PMS5003;50547;49.498;0.092;2023-05-25T00:49:20;20;17;
64229;PMS5003;50547;49.498;0.092;2023-05-25T00:51:50;22;19;
64229;PMS5003;50547;49.498;0.092;2023-05-25T00:54:20;22;19;
64229;PMS5003;50547;49.498;0.092;2023-05-25T00:56:50;22;19;
64229;PMS5003;50547;49.498;0.092;2023-05-25T00:59:23;23;20;
64229;PMS5003;50547;49.498;0.092;2023-05-25T01:01:56;22;19;
64229;PMS5003;50547;49.498;0.092;2023-05-25T01:04:30;23;20;
64229;PMS5003;50547;49.498;0.092;2023-05-25T01:07:02;23;20;
64229;PMS5003;50547;49.498;0.092;2023-05-25T01:09:34;23;20;
64229;PMS5003;50547;49.498;0.092;2023-05-25T01:12:07;23;20;
64229;PMS5003;50547;49.498;0.092;2023-05-25T01:14:38;23;20;
64229;PMS5003;50547;49.498;0.092;2023-05-25T01:17:07;25;22;
64229;PMS5003;50547;49.498;0.092;2023-05-25T01:19:38;24;21;
64229;PMS5003;50547;49.498;0.092;2023-05-25T01:22:09;23;20;
64229;PMS5003;50547;49.498;0.092;2023-05-25T01:24:43;23;20;
64229;PMS5003;50547;49.498;0.092;2023-05-25T01:27:16;25;22;
64229;PMS5003;50547;49.498;0.092;2023-05-25T01:29:52;25;22;
64229;PMS5003;50547;49.498;0.092;2023-05-25T01:32:23;26;23;
64229;PMS5003;50547;49.498;0.092;2023-05-25T01:34:52;25;22;
64229;PMS5003;50547;49.498;0.092;2023-05-25T01:37:24;26;23;
64229;PMS5003;50547;49.498;0.092;2023-05-25T01:39:55;26;23;
64229;PMS5003;50547;49.498;0.092;2023-05-25T01:42:24;25;22;
64229;PMS5003;50547;49.498;0.092;2023-05-25T01:44:53;26;23;
64229;PMS5003;50547;49.498;0.092;2023-05-25T01:47:29;26;23;
64229;PMS5003;50547;49.498;0.092;2023-05-25T01:50:05;27;23;
64229;PMS5003;50547;49.498;0.092;2023-05-25T01:52:40;26;23;
64229;PMS5003;50547;49.498;0.092;2023-05-25T01:55:16;26;23;
64229;PMS5003;50547;49.498;0.092;2023-05-25T01:57:49;27;23;
64229;PMS5003;50547;49.498;0.092;2023-05-25T02:00:19;27;23;
64229;PMS5003;50547;49.498;0.092;2023-05-25T02:02:49;27;23;
64229;PMS5003;50547;49.498;0.092;2023-05-25T02:05:19;26;23;
64229;PMS5003;50547;49.498;0.092;2023-05-25T02:07:48;27;23;
64229;PMS5003;50547;49.498;0.092;2023-05-25T02:10:18;28;24;
64229;PMS5003;50547;49.498;0.092;2023-05-25T02:12:47;27;23;
64229;PMS5003;50547;49.498;0.092;2023-05-25T02:15:16;28;24;
64229;PMS5003;50547;49.498;0.092;2023-05-25T02:17:46;27;23;
64229;PMS5003;50547;49.498;0.092;2023-05-25T02:20:15;27;23;
64229;PMS5003;50547;49.498;0.092;2023-05-25T02:22:44;27;23;
64229;PMS5003;50547;49.498;0.092;2023-05-25T02:25:13;26;23;
64229;PMS5003;50547;49.498;0.092;2023-05-25T02:27:42;27;23;
64229;PMS5003;50547;49.498;0.092;2023-05-25T02:30:12;25;22;
64229;PMS5003;50547;49.498;0.092;2023-05-25T02:32:42;25;22;
64229;PMS5003;50547;49.498;0.092;2023-05-25T02:35:11;26;23;
64229;PMS5003;50547;49.498;0.092;2023-05-25T02:37:40;25;22;
64229;PMS5003;50547;49.498;0.092;2023-05-25T02:40:10;25;22;
64229;PMS5003;50547;49.498;0.092;2023-05-25T02:42:39;25;22;
64229;PMS5003;50547;49.498;0.092;2023-05-25T02:45:09;24;21;
64229;PMS5003;50547;49.498;0.092;2023-05-25T02:47:39;24;21;
64229;PMS5003;50547;49.498;0.092;2023-05-25T02:50:08;23;20;
64229;PMS5003;50547;49.498;0.092;2023-05-25T02:52:38;24;21;
64229;PMS5003;50547;49.498;0.092;2023-05-25T02:55:07;25;22;
64229;PMS5003;50547;49.498;0.092;2023-05-25T02:57:37;24;21;
64229;PMS5003;50547;49.498;0.092;2023-05-25T03:00:07;23;20;
64229;PMS5003;50547;49.498;0.092;2023-05-25T03:02:36;23;20;
64229;PMS5003;50547;49.498;0.092;2023-05-25T03:05:06;23;20;
64229;PMS5003;50547;49.498;0.092;2023-05-25T03:07:35;23;20;
64229;PMS5003;50547;49.498;0.092;2023-05-25T03:10:04;23;20;
64229;PMS5003;50547;49.498;0.092;2023-05-25T03:12:34;22;19;
64229;PMS5003;50547;49.498;0.092;2023-05-25T03:15:03;23;20;
64229;PMS5003;50547;49.498;0.092;2023-05-25T03:17:33;23;20;
64229;PMS5003;50547;49.498;0.092;2023-05-25T03:20:02;22;19;
64229;PMS5003;50547;49.498;0.092;2023-05-25T03:22:32;22;19;
64229;PMS5003;50547;49.498;0.092;2023-05-25T03:25:01;22;19;
64229;PMS5003;50547;49.498;0.092;2023-05-25T03:27:30;21;18;
64229;PMS5003;50547;49.498;0.092;2023-05-25T03:29:59;21;18;
64229;PMS5003;50547;49.498;0.092;2023-05-25T03:32:29;20;17;
64229;PMS5003;50547;49.498;0.092;2023-05-25T03:34:58;20;17;
64229;PMS5003;50547;49.498;0.092;2023-05-25T03:37:27;19;17;
64229;PMS5003;50547;49.498;0.092;2023-05-25T03:39:56;20;17;
64229;PMS5003;50547;49.498;0.092;2023-05-25T03:42:25;18;16;
64229;PMS5003;50547;49.498;0.092;2023-05-25T03:44:55;18;16;
64229;PMS5003;50547;49.498;0.092;2023-05-25T03:47:24;18;16;
64229;PMS5003;50547;49.498;0.092;2023-05-25T03:49:53;18;16;
64229;PMS5003;50547;49.498;0.092;2023-05-25T03:52:23;14;14;
64229;PMS5003;50547;49.498;0.092;2023-05-25T03:54:52;14;14;
64229;PMS5003;50547;49.498;0.092;2023-05-25T03:57:21;14;14;
64229;PMS5003;50547;49.498;0.092;2023-05-25T03:59:50;15;14;
64229;PMS5003;50547;49.498;0.092;2023-05-25T04:02:19;13;13;
64229;PMS5003;50547;49.498;0.092;2023-05-25T04:04:48;13;13;
64229;PMS5003;50547;49.498;0.092;2023-05-25T04:07:18;13;13;
64229;PMS5003;50547;49.498;0.092;2023-05-25T04:09:47;13;13;
64229;PMS5003;50547;49.498;0.092;2023-05-25T04:12:16;13;13;
64229;PMS5003;50547;49.498;0.092;2023-05-25T04:14:45;13;13;
64229;PMS5003;50547;49.498;0.092;2023-05-25T04:17:15;13;13;
64229;PMS5003;50547;49.498;0.092;2023-05-25T04:19:44;13;13;
64229;PMS5003;50547;49.498;0.092;2023-05-25T04:22:13;14;14;
64229;PMS5003;50547;49.498;0.092;2023-05-25T04:24:42;13;13;
64229;PMS5003;50547;49.498;0.092;2023-05-25T04:27:11;13;13;
64229;PMS5003;50547;49.498;0.092;2023-05-25T04:29:40;13;13;
64229;PMS5003;50547;49.498;0.092;2023-05-25T04:32:09;11;11;
64229;PMS5003;50547;49.498;0.092;2023-05-25T04:34:39;13;13;
64229;PMS5003;50547;49.498;0.092;2023-05-25T04:37:08;13;13;
64229;PMS5003;50547;49.498;0.092;2023-05-25T04:39:37;11;11;
64229;PMS5003;50547;49.498;0.092;2023-05-25T04:42:06;13;13;
64229;PMS5003;50547;49.498;0.092;2023-05-25T04:44:35;13;13;
64229;PMS5003;50547;49.498;0.092;2023-05-25T04:47:05;13;13;
64229;PMS5003;50547;49.498;0.092;2023-05-25T04:49:34;11;11;
64229;PMS5003;50547;49.498;0.092;2023-05-25T04:52:04;13;13;
64229;PMS5003;50547;49.498;0.092;2023-05-25T04:54:33;11;11;
64229;PMS5003;50547;49.498;0.092;2023-05-25T04:57:02;11;11;
64229;PMS5003;50547;49.498;0.092;2023-05-25T04:59:32;11;11;
64229;PMS5003;50547;49.498;0.092;2023-05-25T05:02:01;11;11;
64229;PMS5003;50547;49.498;0.092;2023-05-25T05:04:30;11;11;
64229;PMS5003;50547;49.498;0.092;2023-05-25T05:06:59;11;11;
64229;PMS5003;50547;49.498;0.092;2023-05-25T05:09:28;11;11;
64229;PMS5003;50547;49.498;0.092;2023-05-25T05:11:57;13;13;
64229;PMS5003;50547;49.498;0.092;2023-05-25T05:14:27;11;11;
64229;PMS5003;50547;49.498;0.092;2023-05-25T05:16:56;13;13;
64229;PMS5003;50547;49.498;0.092;2023-05-25T05:19:25;13;13;
64229;PMS5003;50547;49.498;0.092;2023-05-25T05:21:54;13;13;
64229;PMS5003;50547;49.498;0.092;2023-05-25T05:24:23;13;13;
64229;PMS5003;50547;49.498;0.092;2023-05-25T05:26:52;13;13;
64229;PMS5003;50547;49.498;0.092;2023-05-25T05:29:22;13;13;
64229;PMS5003;50547;49.498;0.092;2023-05-25T05:31:51;13;13;
64229;PMS5003;50547;49.498;0.092;2023-05-25T05:34:20;13;13;
64229;PMS5003;50547;49.498;0.092;2023-05-25T05:36:49;13;13;
64229;PMS5003;50547;49.498;0.092;2023-05-25T05:39:18;13;13;
64229;PMS5003;50547;49.498;0.092;2023-05-25T05:41:47;13;13;
64229;PMS5003;50547;49.498;0.092;2023-05-25T05:44:17;13;13;
64229;PMS5003;50547;49.498;0.092;2023-05-25T05:46:46;13;13;
64229;PMS5003;50547;49.498;0.092;2023-05-25T05:49:15;13;13;
64229;PMS5003;50547;49.498;0.092;2023-05-25T05:51:44;13;13;
64229;PMS5003;50547;49.498;0.092;2023-05-25T05:54:13;13;13;
64229;PMS5003;50547;49.498;0.092;2023-05-25T05:56:42;13;13;
64229;PMS5003;50547;49.498;0.092;2023-05-25T05:59:12;13;13;
64229;PMS5003;50547;49.498;0.092;2023-05-25T06:01:41;13;13;
64229;PMS5003;50547;49.498;0.092;2023-05-25T06:04:10;13;13;
64229;PMS5003;50547;49.498;0.092;2023-05-25T06:06:39;13;13;
64229;PMS5003;50547;49.498;0.092;2023-05-25T06:09:08;13;13;
64229;PMS5003;50547;49.498;0.092;2023-05-25T06:11:35;13;13;
64229;PMS5003;50547;49.498;0.092;2023-05-25T06:14:05;13;13;
64229;PMS5003;50547;49.498;0.092;2023-05-25T06:16:34;13;13;
64229;PMS5003;50547;49.498;0.092;2023-05-25T06:19:03;13;13;
64229;PMS5003;50547;49.498;0.092;2023-05-25T06:21:32;14;14;
64229;PMS5003;50547;49.498;0.092;2023-05-25T06:24:16;13;13;
64229;PMS5003;50547;49.498;0.092;2023-05-25T06:26:45;13;13;
64229;PMS5003;50547;49.498;0.092;2023-05-25T06:29:15;13;13;
64229;PMS5003;50547;49.498;0.092;2023-05-25T06:31:44;13;13;
64229;PMS5003;50547;49.498;0.092;2023-05-25T06:34:13;13;13;
64229;PMS5003;50547;49.498;0.092;2023-05-25T06:36:42;13;13;
64229;PMS5003;50547;49.498;0.092;2023-05-25T06:39:11;13;13;
64229;PMS5003;50547;49.498;0.092;2023-05-25T06:41:37;13;13;
64229;PMS5003;50547;49.498;0.092;2023-05-25T06:44:07;13;13;
64229;PMS5003;50547;49.498;0.092;2023-05-25T06:46:36;11;11;
64229;PMS5003;50547;49.498;0.092;2023-05-25T06:49:06;11;11;
64229;PMS5003;50547;49.498;0.092;2023-05-25T06:51:35;11;11;
64229;PMS5003;50547;49.498;0.092;2023-05-25T06:54:05;13;13;
64229;PMS5003;50547;49.498;0.092;2023-05-25T06:56:35;11;11;
64229;PMS5003;50547;49.498;0.092;2023-05-25T06:59:04;11;11;
64229;PMS5003;50547;49.498;0.092;2023-05-25T07:01:33;11;11;
64229;PMS5003;50547;49.498;0.092;2023-05-25T07:04:02;11;11;
64229;PMS5003;50547;49.498;0.092;2023-05-25T07:06:31;11;11;
64229;PMS5003;50547;49.498;0.092;2023-05-25T07:09:00;11;11;
64229;PMS5003;50547;49.498;0.092;2023-05-25T07:11:30;11;11;
64229;PMS5003;50547;49.498;0.092;2023-05-25T07:13:59;11;11;
64229;PMS5003;50547;49.498;0.092;2023-05-25T07:16:28;11;11;
64229;PMS5003;50547;49.498;0.092;2023-05-25T07:18:57;11;11;
64229;PMS5003;50547;49.498;0.092;2023-05-25T07:21:29;11;11;
64229;PMS5003;50547;49.498;0.092;2023-05-25T07:23:59;11;11;
64229;PMS5003;50547;49.498;0.092;2023-05-25T07:26:29;11;11;
64229;PMS5003;50547;49.498;0.092;2023-05-25T07:28:56;10;10;
64229;PMS5003;50547;49.498;0.092;2023-05-25T07:31:22;10;10;
64229;PMS5003;50547;49.498;0.092;2023-05-25T07:33:48;11;11;
64229;PMS5003;50547;49.498;0.092;2023-05-25T07:36:18;11;11;
64229;PMS5003;50547;49.498;0.092;2023-05-25T07:38:47;11;11;
64229;PMS5003;50547;49.498;0.092;2023-05-25T07:41:16;11;11;
64229;PMS5003;50547;49.498;0.092;2023-05-25T07:43:46;11;11;
64229;PMS5003;50547;49.498;0.092;2023-05-25T07:46:15;11;11;
64229;PMS5003;50547;49.498;0.092;2023-05-25T07:48:44;13;13;
64229;PMS5003;50547;49.498;0.092;2023-05-25T07:51:13;11;11;
64229;PMS5003;50547;49.498;0.092;2023-05-25T07:53:42;13;13;
64229;PMS5003;50547;49.498;0.092;2023-05-25T07:56:11;11;11;
64229;PMS5003;50547;49.498;0.092;2023-05-25T07:58:40;13;13;
64229;PMS5003;50547;49.498;0.092;2023-05-25T08:01:09;11;11;
64229;PMS5003;50547;49.498;0.092;2023-05-25T08:03:38;13;13;
64229;PMS5003;50547;49.498;0.092;2023-05-25T08:06:08;13;13;
64229;PMS5003;50547;49.498;0.092;2023-05-25T08:08:37;13;13;
64229;PMS5003;50547;49.498;0.092;2023-05-25T08:11:06;11;11;
64229;PMS5003;50547;49.498;0.092;2023-05-25T08:13:35;13;13;
64229;PMS5003;50547;49.498;0.092;2023-05-25T08:16:04;11;11;
64229;PMS5003;50547;49.498;0.092;2023-05-25T08:18:34;11;11;
64229;PMS5003;50547;49.498;0.092;2023-05-25T08:21:03;11;11;
64229;PMS5003;50547;49.498;0.092;2023-05-25T08:23:32;11;11;
64229;PMS5003;50547;49.498;0.092;2023-05-25T08:26:01;11;11;
64229;PMS5003;50547;49.498;0.092;2023-05-25T08:28:30;11;11;
64229;PMS5003;50547;49.498;0.092;2023-05-25T08:31:00;11;11;
64229;PMS5003;50547;49.498;0.092;2023-05-25T08:33:29;11;11;
64229;PMS5003;50547;49.498;0.092;2023-05-25T08:35:58;11;11;
64229;PMS5003;50547;49.498;0.092;2023-05-25T08:38:27;11;11;
64229;PMS5003;50547;49.498;0.092;2023-05-25T08:41:00;11;11;
64229;PMS5003;50547;49.498;0.092;2023-05-25T08:43:31;10;10;
64229;PMS5003;50547;49.498;0.092;2023-05-25T08:46:01;9;9;
64229;PMS5003;50547;49.498;0.092;2023-05-25T08:48:32;9;9;
64229;PMS5003;50547;49.498;0.092;2023-05-25T08:51:04;8;8;
64229;PMS5003;50547;49.498;0.092;2023-05-25T08:53:36;9;9;
64229;PMS5003;50547;49.498;0.092;2023-05-25T08:56:09;8;8;
64229;PMS5003;50547;49.498;0.092;2023-05-25T08:58:43;8;8;
64229;PMS5003;50547;49.498;0.092;2023-05-25T09:01:14;7;7;
64229;PMS5003;50547;49.498;0.092;2023-05-25T09:03:47;7;7;
64229;PMS5003;50547;49.498;0.092;2023-05-25T09:06:17;7;7;
64229;PMS5003;50547;49.498;0.092;2023-05-25T09:08:47;7;7;
64229;PMS5003;50547;49.498;0.092;2023-05-25T09:11:33;7;7;
64229;PMS5003;50547;49.498;0.092;2023-05-25T09:14:03;7;7;
64229;PMS5003;50547;49.498;0.092;2023-05-25T09:16:32;7;7;
64229;PMS5003;50547;49.498;0.092;2023-05-25T09:19:01;7;7;
64229;PMS5003;50547;49.498;0.092;2023-05-25T09:21:31;8;8;
64229;PMS5003;50547;49.498;0.092;2023-05-25T09:24:00;7;7;
64229;PMS5003;50547;49.498;0.092;2023-05-25T09:26:29;7;7;
64229;PMS5003;50547;49.498;0.092;2023-05-25T09:28:59;7;7;
64229;PMS5003;50547;49.498;0.092;2023-05-25T09:31:29;7;7;
64229;PMS5003;50547;49.498;0.092;2023-05-25T09:33:59;7;7;
64229;PMS5003;50547;49.498;0.092;2023-05-25T09:36:29;7;7;
64229;PMS5003;50547;49.498;0.092;2023-05-25T09:38:58;7;7;
64229;PMS5003;50547;49.498;0.092;2023-05-25T09:41:27;7;7;
64229;PMS5003;50547;49.498;0.092;2023-05-25T09:43:56;7;7;
64229;PMS5003;50547;49.498;0.092;2023-05-25T09:46:35;8;8;
64229;PMS5003;50547;49.498;0.092;2023-05-25T09:49:06;7;7;
64229;PMS5003;50547;49.498;0.092;2023-05-25T09:51:33;7;7;
64229;PMS5003;50547;49.498;0.092;2023-05-25T09:54:01;8;8;
64229;PMS5003;50547;49.498;0.092;2023-05-25T09:56:32;8;8;
64229;PMS5003;50547;49.498;0.092;2023-05-25T09:59:01;7;7;
64229;PMS5003;50547;49.498;0.092;2023-05-25T10:01:31;7;7;
64229;PMS5003;50547;49.498;0.092;2023-05-25T10:04:00;7;7;
64229;PMS5003;50547;49.498;0.092;2023-05-25T10:06:30;7;7;
64229;PMS5003;50547;49.498;0.092;2023-05-25T10:08:59;7;7;
64229;PMS5003;50547;49.498;0.092;2023-05-25T10:11:29;7;7;
64229;PMS5003;50547;49.498;0.092;2023-05-25T10:14:01;7;7;
64229;PMS5003;50547;49.498;0.092;2023-05-25T10:16:35;7;7;
64229;PMS5003;50547;49.498;0.092;2023-05-25T10:19:10;7;7;
64229;PMS5003;50547;49.498;0.092;2023-05-25T10:21:42;9;9;
64229;PMS5003;50547;49.498;0.092;2023-05-25T10:24:17;8;8;
64229;PMS5003;50547;49.498;0.092;2023-05-25T10:26:54;10;10;
64229;PMS5003;50547;49.498;0.092;2023-05-25T10:29:27;11;11;
64229;PMS5003;50547;49.498;0.092;2023-05-25T10:32:08;11;11;
64229;PMS5003;50547;49.498;0.092;2023-05-25T10:34:37;10;10;
64229;PMS5003;50547;49.498;0.092;2023-05-25T10:37:07;11;11;
64229;PMS5003;50547;49.498;0.092;2023-05-25T10:39:36;10;10;
64229;PMS5003;50547;49.498;0.092;2023-05-25T10:42:08;11;11;
64229;PMS5003;50547;49.498;0.092;2023-05-25T10:44:37;10;10;
64229;PMS5003;50547;49.498;0.092;2023-05-25T10:47:08;11;11;
64229;PMS5003;50547;49.498;0.092;2023-05-25T10:49:49;10;10;
64229;PMS5003;50547;49.498;0.092;2023-05-25T10:52:20;11;11;
64229;PMS5003;50547;49.498;0.092;2023-05-25T10:54:47;11;11;
64229;PMS5003;50547;49.498;0.092;2023-05-25T10:57:17;10;10;
64229;PMS5003;50547;49.498;0.092;2023-05-25T10:59:47;18;16;
64229;PMS5003;50547;49.498;0.092;2023-05-25T11:02:23;11;11;
64229;PMS5003;50547;49.498;0.092;2023-05-25T11:06:00;14;14;
64229;PMS5003;50547;49.498;0.092;2023-05-25T11:08:38;11;11;
64229;PMS5003;50547;49.498;0.092;2023-05-25T11:11:16;10;10;
64229;PMS5003;50547;49.498;0.092;2023-05-25T11:13:45;10;10;
64229;PMS5003;50547;49.498;0.092;2023-05-25T11:16:13;11;11;
64229;PMS5003;50547;49.498;0.092;2023-05-25T11:18:44;10;10;
64229;PMS5003;50547;49.498;0.092;2023-05-25T11:21:23;10;10;
64229;PMS5003;50547;49.498;0.092;2023-05-25T11:24:11;10;10;
64229;PMS5003;50547;49.498;0.092;2023-05-25T11:26:57;11;11;
64229;PMS5003;50547;49.498;0.092;2023-05-25T11:29:30;11;11;
64229;PMS5003;50547;49.498;0.092;2023-05-25T11:31:59;11;11;
64229;PMS5003;50547;49.498;0.092;2023-05-25T11:34:29;11;11;
64229;PMS5003;50547;49.498;0.092;2023-05-25T11:36:58;11;11;
64229;PMS5003;50547;49.498;0.092;2023-05-25T11:39:45;11;11;
64229;PMS5003;50547;49.498;0.092;2023-05-25T11:42:14;11;11;
64229;PMS5003;50547;49.498;0.092;2023-05-25T11:44:45;11;11;
64229;PMS5003;50547;49.498;0.092;2023-05-25T11:47:15;11;11;
64229;PMS5003;50547;49.498;0.092;2023-05-25T11:49:45;11;11;
64229;PMS5003;50547;49.498;0.092;2023-05-25T11:52:15;11;11;
64229;PMS5003;50547;49.498;0.092;2023-05-25T11:54:45;10;10;
64229;PMS5003;50547;49.498;0.092;2023-05-25T11:57:16;11;11;
64229;PMS5003;50547;49.498;0.092;2023-05-25T11:59:46;11;11;
64229;PMS5003;50547;49.498;0.092;2023-05-25T12:02:16;11;11;
64229;PMS5003;50547;49.498;0.092;2023-05-25T12:04:51;11;11;
64229;PMS5003;50547;49.498;0.092;2023-05-25T12:07:21;11;11;
64229;PMS5003;50547;49.498;0.092;2023-05-25T12:09:51;11;11;
64229;PMS5003;50547;49.498;0.092;2023-05-25T12:12:36;11;11;
64229;PMS5003;50547;49.498;0.092;2023-05-25T12:15:08;10;10;
64229;PMS5003;50547;49.498;0.092;2023-05-25T12:17:39;11;11;
64229;PMS5003;50547;49.498;0.092;2023-05-25T12:20:10;11;11;
64229;PMS5003;50547;49.498;0.092;2023-05-25T12:22:41;11;11;
64229;PMS5003;50547;49.498;0.092;2023-05-25T12:25:11;11;11;
64229;PMS5003;50547;49.498;0.092;2023-05-25T12:27:41;11;11;
64229;PMS5003;50547;49.498;0.092;2023-05-25T12:30:10;11;11;
64229;PMS5003;50547;49.498;0.092;2023-05-25T12:32:58;13;13;
64229;PMS5003;50547;49.498;0.092;2023-05-25T12:35:28;11;11;
64229;PMS5003;50547;49.498;0.092;2023-05-25T12:38:11;11;11;
64229;PMS5003;50547;49.498;0.092;2023-05-25T12:40:42;11;11;
64229;PMS5003;50547;49.498;0.092;2023-05-25T12:43:11;11;11;
64229;PMS5003;50547;49.498;0.092;2023-05-25T12:45:42;11;11;
64229;PMS5003;50547;49.498;0.092;2023-05-25T12:48:12;11;11;
64229;PMS5003;50547;49.498;0.092;2023-05-25T12:50:55;11;11;
64229;PMS5003;50547;49.498;0.092;2023-05-25T12:53:24;11;11;
64229;PMS5003;50547;49.498;0.092;2023-05-25T12:56:01;11;11;
64229;PMS5003;50547;49.498;0.092;2023-05-25T12:58:28;10;10;
64229;PMS5003;50547;49.498;0.092;2023-05-25T13:00:57;11;11;
64229;PMS5003;50547;49.498;0.092;2023-05-25T13:03:27;11;11;
64229;PMS5003;50547;49.498;0.092;2023-05-25T13:05:58;11;11;
64229;PMS5003;50547;49.498;0.092;2023-05-25T13:08:28;11;11;
64229;PMS5003;50547;49.498;0.092;2023-05-25T13:10:58;11;11;
64229;PMS5003;50547;49.498;0.092;2023-05-25T13:13:27;11;11;
64229;PMS5003;50547;49.498;0.092;2023-05-25T13:15:56;11;11;
64229;PMS5003;50547;49.498;0.092;2023-05-25T13:18:25;11;11;
64229;PMS5003;50547;49.498;0.092;2023-05-25T13:20:54;11;11;
64229;PMS5003;50547;49.498;0.092;2023-05-25T13:23:23;13;13;
64229;PMS5003;50547;49.498;0.092;2023-05-25T13:25:52;11;11;
64229;PMS5003;50547;49.498;0.092;2023-05-25T13:28:21;11;11;
64229;PMS5003;50547;49.498;0.092;2023-05-25T13:30:51;11;11;
64229;PMS5003;50547;49.498;0.092;2023-05-25T13:33:20;12;12;
64229;PMS5003;50547;49.498;0.092;2023-05-25T13:35:50;11;11;
64229;PMS5003;50547;49.498;0.092;2023-05-25T13:38:19;11;11;
64229;PMS5003;50547;49.498;0.092;2023-05-25T13:40:48;11;11;
64229;PMS5003;50547;49.498;0.092;2023-05-25T13:43:17;11;11;
64229;PMS5003;50547;49.498;0.092;2023-05-25T13:45:46;11;11;
64229;PMS5003;50547;49.498;0.092;2023-05-25T13:48:15;11;11;
64229;PMS5003;50547;49.498;0.092;2023-05-25T13:50:45;11;11;
64229;PMS5003;50547;49.498;0.092;2023-05-25T13:53:19;11;11;
64229;PMS5003;50547;49.498;0.092;2023-05-25T13:55:46;11;11;
64229;PMS5003;50547;49.498;0.092;2023-05-25T13:58:15;11;11;
64229;PMS5003;50547;49.498;0.092;2023-05-25T14:00:50;11;11;
64229;PMS5003;50547;49.498;0.092;2023-05-25T14:03:19;10;10;
64229;PMS5003;50547;49.498;0.092;2023-05-25T14:05:48;11;11;
64229;PMS5003;50547;49.498;0.092;2023-05-25T14:08:23;11;11;
64229;PMS5003;50547;49.498;0.092;2023-05-25T14:10:52;11;11;
64229;PMS5003;50547;49.498;0.092;2023-05-25T14:13:18;11;11;
64229;PMS5003;50547;49.498;0.092;2023-05-25T14:15:47;11;11;
64229;PMS5003;50547;49.498;0.092;2023-05-25T14:18:16;11;11;
64229;PMS5003;50547;49.498;0.092;2023-05-25T14:20:46;11;11;
64229;PMS5003;50547;49.498;0.092;2023-05-25T14:23:16;11;11;
64229;PMS5003;50547;49.498;0.092;2023-05-25T14:25:45;11;11;
64229;PMS5003;50547;49.498;0.092;2023-05-25T14:28:14;11;11;
64229;PMS5003;50547;49.498;0.092;2023-05-25T14:30:43;11;11;
64229;PMS5003;50547;49.498;0.092;2023-05-25T14:33:12;11;11;
64229;PMS5003;50547;49.498;0.092;2023-05-25T14:35:41;11;11;
64229;PMS5003;50547;49.498;0.092;2023-05-25T14:38:10;11;11;
64229;PMS5003;50547;49.498;0.092;2023-05-25T14:40:37;11;11;
64229;PMS5003;50547;49.498;0.092;2023-05-25T14:43:07;11;11;
64229;PMS5003;50547;49.498;0.092;2023-05-25T14:45:36;11;11;
64229;PMS5003;50547;49.498;0.092;2023-05-25T14:48:05;10;10;
64229;PMS5003;50547;49.498;0.092;2023-05-25T14:50:34;11;11;
64229;PMS5003;50547;49.498;0.092;2023-05-25T14:53:03;11;11;
64229;PMS5003;50547;49.498;0.092;2023-05-25T14:55:32;11;11;
64229;PMS5003;50547;49.498;0.092;2023-05-25T14:58:11;11;11;
64229;PMS5003;50547;49.498;0.092;2023-05-25T15:00:41;11;11;
64229;PMS5003;50547;49.498;0.092;2023-05-25T15:03:10;11;11;
64229;PMS5003;50547;49.498;0.092;2023-05-25T15:05:39;11;11;
64229;PMS5003;50547;49.498;0.092;2023-05-25T15:08:08;11;11;
64229;PMS5003;50547;49.498;0.092;2023-05-25T15:10:37;11;11;
64229;PMS5003;50547;49.498;0.092;2023-05-25T15:13:06;11;11;
64229;PMS5003;50547;49.498;0.092;2023-05-25T15:15:35;11;11;
64229;PMS5003;50547;49.498;0.092;2023-05-25T15:18:04;11;11;
64229;PMS5003;50547;49.498;0.092;2023-05-25T15:20:34;11;11;
64229;PMS5003;50547;49.498;0.092;2023-05-25T15:23:03;11;11;
64229;PMS5003;50547;49.498;0.092;2023-05-25T15:25:32;11;11;
64229;PMS5003;50547;49.498;0.092;2023-05-25T15:28:01;11;11;
64229;PMS5003;50547;49.498;0.092;2023-05-25T15:30:31;11;11;
64229;PMS5003;50547;49.498;0.092;2023-05-25T15:33:01;11;11;
64229;PMS5003;50547;49.498;0.092;2023-05-25T15:35:30;11;11;
64229;PMS5003;50547;49.498;0.092;2023-05-25T15:38:00;11;11;
64229;PMS5003;50547;49.498;0.092;2023-05-25T15:40:30;11;11;
64229;PMS5003;50547;49.498;0.092;2023-05-25T15:42:59;11;11;
64229;PMS5003;50547;49.498;0.092;2023-05-25T15:45:28;11;11;
64229;PMS5003;50547;49.498;0.092;2023-05-25T15:47:57;11;11;
64229;PMS5003;50547;49.498;0.092;2023-05-25T15:50:27;11;11;
64229;PMS5003;50547;49.498;0.092;2023-05-25T15:52:56;11;11;
64229;PMS5003;50547;49.498;0.092;2023-05-25T15:55:25;11;11;
64229;PMS5003;50547;49.498;0.092;2023-05-25T15:57:51;11;11;
64229;PMS5003;50547;49.498;0.092;2023-05-25T16:00:21;11;11;
64229;PMS5003;50547;49.498;0.092;2023-05-25T16:02:50;10;10;
64229;PMS5003;50547;49.498;0.092;2023-05-25T16:05:19;11;11;
64229;PMS5003;50547;49.498;0.092;2023-05-25T16:07:48;11;11;
64229;PMS5003;50547;49.498;0.092;2023-05-25T16:10:17;11;11;
64229;PMS5003;50547;49.498;0.092;2023-05-25T16:12:47;11;11;
64229;PMS5003;50547;49.498;0.092;2023-05-25T16:15:16;11;11;
64229;PMS5003;50547;49.498;0.092;2023-05-25T16:17:45;10;10;
64229;PMS5003;50547;49.498;0.092;2023-05-25T16:20:14;11;11;
64229;PMS5003;50547;49.498;0.092;2023-05-25T16:22:44;11;11;
64229;PMS5003;50547;49.498;0.092;2023-05-25T16:25:13;11;11;
64229;PMS5003;50547;49.498;0.092;2023-05-25T16:27:42;11;11;
64229;PMS5003;50547;49.498;0.092;2023-05-25T16:30:08;13;13;
64229;PMS5003;50547;49.498;0.092;2023-05-25T16:32:38;11;11;
64229;PMS5003;50547;49.498;0.092;2023-05-25T16:35:08;11;11;
64229;PMS5003;50547;49.498;0.092;2023-05-25T16:37:37;11;11;
64229;PMS5003;50547;49.498;0.092;2023-05-25T16:40:07;11;11;
64229;PMS5003;50547;49.498;0.092;2023-05-25T16:42:36;11;11;